Time;durP1;ratioP1;P1;durP2;ratioP2;P2;SDS_P1;SDS_P2;PMS_P1;PMS_P2;Temp;Humidity;BMP_temperature;BMP_pressure;BME280_temperature;BME280_humidity;BME280_pressure;Samples;Min_cycle;Max_cycle;Signal;HPM_P1;HPM_P2
2022/05/31 00:00:55;;;;;;;;;;;;;;;;;;4950873;28;20909;-61
2022/05/31 00:03:21;;;;;;;;;;;;;;;;;;4965002;28;19993;-61
2022/05/31 00:05:50;;;;;;;;;;;;;;;;;;4967132;28;20555;-61
2022/05/31 00:08:15;;;;;;;;;;;;;;;;;;4951496;28;19957;-61
2022/05/31 00:10:43;;;;;;;;;;;;;;;;;;4968406;28;19925;-61
2022/05/31 00:13:10;;;;;;;;;;;;;;;;;;4968673;28;19922;-61
2022/05/31 00:15:38;;;;;;;;;;;;;;;;;;4966112;28;20016;-61
2022/05/31 00:18:06;;;;;;;;;;;;;;;;;;4965407;28;19917;-61
2022/05/31 00:20:34;;;;;;;;;;;;;;;;;;4962927;28;20704;-61
2022/05/31 00:23:01;;;;;;;;;;;;;;;;;;4970252;28;19926;-61
2022/05/31 00:25:27;;;;;;;;;;;;;;;;;;4968222;28;20294;-61
2022/05/31 00:27:52;;;;;;;;;;;;;;;;;;4964951;28;19922;-61
2022/05/31 00:30:17;;;;;;;;;;;;;;;;;;4968231;28;19921;-61
2022/05/31 00:32:45;;;;;;;;;;;;;;;;;;4967333;28;19921;-61
2022/05/31 00:35:14;;;;;;;;;;;;;;;;;;4962748;28;19926;-61
2022/05/31 00:37:43;;;;;;;;;;;;;;;;;;4967266;28;19925;-61
2022/05/31 00:40:11;;;;;;;;;;;;;;;;;;4961816;28;19932;-61
2022/05/31 00:42:38;;;;;;;;;;;;;;;;;;4962628;28;19917;-61
2022/05/31 00:45:06;;;;;;;;;;;;;;;;;;4967833;28;19934;-61
2022/05/31 00:47:37;;;;;;;;;;;;;;;;;;4968009;28;19949;-61
2022/05/31 00:50:04;;;;;;;;;;;;;;;;;;4967996;28;19976;-61
2022/05/31 00:52:30;;;;;;;;;;;;;;;;;;4969318;28;19922;-61
2022/05/31 00:55:00;;;;;;;;;;;;;;;;;;4969769;28;19925;-60
2022/05/31 00:57:28;;;;;;;;;;;;;;;;;;4947623;28;19918;-61
2022/05/31 00:59:55;;;;;;;;;;;;;;;;;;4965728;28;19973;-61
2022/05/31 01:02:25;;;;;;;;;;;;;;;;;;4967271;28;19922;-61
2022/05/31 01:04:50;;;;;;;;;;;;;;;;;;4964803;28;19929;-61
2022/05/31 01:07:18;;;;;;;;;;;;;;;;;;4966545;28;19972;-61
2022/05/31 01:09:46;;;;;;;;;;;;;;;;;;4966058;28;19926;-62
2022/05/31 01:12:11;;;;;;;;;;;;;;;;;;4963401;28;21166;-62
2022/05/31 01:14:38;;;;;;;;;;;;;;;;;;4968881;28;19958;-62
2022/05/31 01:17:03;;;;;;;;;;;;;;;;;;4965996;28;20463;-61
2022/05/31 01:22:16;;;;;;;;;;;;;;;;;;4959516;28;19925;-61
2022/05/31 01:24:41;;;;;;;;;;;;;;;;;;4960684;28;20364;-61
2022/05/31 01:27:07;;;;;;;;;;;;;;;;;;4964312;28;19925;-62
2022/05/31 01:29:34;;;;;;;;;;;;;;;;;;4965906;28;19918;-62
2022/05/31 01:32:02;;;;;;;;;;;;;;;;;;4967780;28;19929;-60
2022/05/31 01:34:27;;;;;;;;;;;;;;;;;;4962721;28;20938;-60
2022/05/31 01:36:53;;;;;;;;;;;;;;;;;;4966529;28;19953;-59
2022/05/31 01:39:20;;;;;;;;;;;;;;;;;;4945002;28;19964;-60
2022/05/31 01:41:46;;;;;;;;;;;;;;;;;;4965515;28;19928;-60
2022/05/31 01:44:11;;;;;;;;;;;;;;;;;;4948200;28;19921;-62
2022/05/31 01:46:37;;;;;;;;;;;;;;;;;;4965507;28;19952;-60
2022/05/31 01:49:02;;;;;;;;;;;;;;;;;;4961824;28;19922;-61
2022/05/31 01:51:30;;;;;;;;;;;;;;;;;;4960668;28;19921;-61
2022/05/31 01:53:55;;;;;;;;;;;;;;;;;;4948099;28;19945;-61
2022/05/31 01:56:23;;;;;;;;;;;;;;;;;;4950115;28;19976;-61
2022/05/31 01:58:48;;;;;;;;;;;;;;;;;;4968109;28;19922;-61
2022/05/31 02:01:16;;;;;;;;;;;;;;;;;;4966167;28;20583;-60
2022/05/31 02:03:42;;;;;;;;;;;;;;;;;;4965825;28;19926;-61
2022/05/31 02:06:10;;;;;;;;;;;;;;;;;;4965198;28;19976;-61
2022/05/31 02:08:39;;;;;;;;;;;;;;;;;;4967600;28;20452;-61
2022/05/31 02:11:04;;;;;;;;;;;;;;;;;;4963925;28;20487;-62
2022/05/31 02:13:29;;;;;;;;;;;;;;;;;;4964358;28;20008;-61
2022/05/31 02:15:55;;;;;;;;;;;;;;;;;;4965395;28;19929;-61
2022/05/31 02:18:22;;;;;;;;;;;;;;;;;;4947398;28;20463;-62
2022/05/31 02:20:50;;;;;;;;;;;;;;;;;;4969106;28;19922;-61
2022/05/31 02:23:18;;;;;;;;;;;;;;;;;;4968119;28;19971;-61
2022/05/31 02:25:46;;;;;;;;;;;;;;;;;;4951552;28;20440;-62
2022/05/31 02:28:11;;;;;;;;;;;;;;;;;;4963445;28;19932;-61
2022/05/31 02:30:39;;;;;;;;;;;;;;;;;;4970937;28;20562;-62
2022/05/31 02:33:07;;;;;;;;;;;;;;;;;;4969565;28;19922;-60
2022/05/31 02:35:36;;;;;;;;;;;;;;;;;;4969125;28;20305;-60
2022/05/31 02:38:05;;;;;;;;;;;;;;;;;;4969397;28;19976;-60
2022/05/31 02:40:33;;;;;;;;;;;;;;;;;;4970371;28;20686;-63
2022/05/31 02:42:59;;;;;;;;;;;;;;;;;;4971261;28;19928;-61
2022/05/31 02:45:24;;;;;;;;;;;;;;;;;;4948085;28;19925;-61
2022/05/31 02:47:51;;;;;;;;;;;;;;;;;;4966871;28;19922;-62
2022/05/31 02:50:19;;;;;;;;;;;;;;;;;;4960099;28;19922;-61
2022/05/31 02:52:45;;;;;;;;;;;;;;;;;;4968121;28;19933;-62
2022/05/31 02:55:11;;;;;;;;;;;;;;;;;;4967843;28;19922;-61
2022/05/31 03:00:55;;;;;;;;;;;;;;;;;;4968688;28;19937;-61
2022/05/31 03:06:15;;;;;;;;;;;;;;;;;;4969264;28;20527;-61
2022/05/31 03:08:43;;;;;;;;;;;;;;;;;;4967598;28;19922;-61
2022/05/31 03:11:08;;;;;;;;;;;;;;;;;;4966931;28;19929;-61
2022/05/31 03:13:36;;;;;;;;;;;;;;;;;;4968505;28;20843;-60
2022/05/31 03:16:01;;;;;;;;;;;;;;;;;;4966723;28;19922;-61
2022/05/31 03:18:29;;;;;;;;;;;;;;;;;;4971314;28;20039;-60
2022/05/31 03:20:55;;;;;;;;;;;;;;;;;;4967077;28;20810;-60
2022/05/31 03:23:20;;;;;;;;;;;;;;;;;;4949966;28;19922;-61
2022/05/31 03:25:45;;;;;;;;;;;;;;;;;;4970424;28;19922;-60
2022/05/31 03:28:13;;;;;;;;;;;;;;;;;;4965575;28;19922;-60
2022/05/31 03:30:39;;;;;;;;;;;;;;;;;;4967207;28;19922;-60
2022/05/31 03:33:04;;;;;;;;;;;;;;;;;;4968375;28;20507;-61
2022/05/31 03:35:37;;;;;;;;;;;;;;;;;;4969715;28;19921;-61
2022/05/31 03:38:02;;;;;;;;;;;;;;;;;;4965174;28;19922;-61
2022/05/31 03:43:14;;;;;;;;;;;;;;;;;;4968869;28;19918;-61
2022/05/31 03:45:39;;;;;;;;;;;;;;;;;;4960811;28;19932;-61
2022/05/31 03:48:05;;;;;;;;;;;;;;;;;;4948901;28;19918;-61
2022/05/31 03:50:30;;;;;;;;;;;;;;;;;;4961848;28;19921;-61
2022/05/31 03:52:55;;;;;;;;;;;;;;;;;;4969483;28;19924;-61
2022/05/31 03:55:21;;;;;;;;;;;;;;;;;;4965272;28;20009;-61
2022/05/31 03:57:46;;;;;;;;;;;;;;;;;;4949451;28;19922;-61
2022/05/31 04:00:14;;;;;;;;;;;;;;;;;;4964588;28;19926;-61
2022/05/31 04:02:39;;;;;;;;;;;;;;;;;;4950075;28;20459;-61
2022/05/31 04:05:05;;;;;;;;;;;;;;;;;;4949202;28;20017;-61
2022/05/31 04:07:30;;;;;;;;;;;;;;;;;;4967297;28;21881;-61
2022/05/31 04:09:55;;;;;;;;;;;;;;;;;;4968842;28;19928;-60
2022/05/31 04:12:23;;;;;;;;;;;;;;;;;;4968727;28;19925;-61
2022/05/31 04:18:05;;;;;;;;;;;;;;;;;;4968381;28;20440;-61
2022/05/31 04:20:30;;;;;;;;;;;;;;;;;;4947633;28;19921;-61
2022/05/31 04:23:57;;;;;;;;;;;;;;;;;;4966416;28;20377;-61
2022/05/31 04:32:15;;;;;;;;;;;;;;;;;;4965893;28;20017;-61
2022/05/31 04:34:41;;;;;;;;;;;;;;;;;;4949534;28;19926;-61
2022/05/31 04:37:06;;;;;;;;;;;;;;;;;;4968067;28;20863;-60
2022/05/31 04:39:32;;;;;;;;;;;;;;;;;;4965505;28;19925;-61
2022/05/31 04:41:59;;;;;;;;;;;;;;;;;;4960859;28;19939;-61
2022/05/31 04:44:27;;;;;;;;;;;;;;;;;;4966362;28;20808;-61
2022/05/31 04:46:58;;;;;;;;;;;;;;;;;;4970356;28;19921;-61
2022/05/31 04:49:26;;;;;;;;;;;;;;;;;;4967196;28;20617;-62
2022/05/31 04:51:51;;;;;;;;;;;;;;;;;;4966242;28;19922;-62
2022/05/31 04:54:20;;;;;;;;;;;;;;;;;;4964850;28;20456;-62
2022/05/31 04:56:46;;;;;;;;;;;;;;;;;;4964544;28;19922;-62
2022/05/31 04:59:11;;;;;;;;;;;;;;;;;;4966947;28;21761;-61
2022/05/31 05:01:41;;;;;;;;;;;;;;;;;;4968867;28;19922;-61
2022/05/31 05:04:07;;;;;;;;;;;;;;;;;;4967769;28;19974;-61
2022/05/31 05:06:34;;;;;;;;;;;;;;;;;;4968450;28;19917;-62
2022/05/31 05:09:00;;;;;;;;;;;;;;;;;;4981666;28;19936;-62
2022/05/31 05:11:27;;;;;;;;;;;;;;;;;;4967292;28;19926;-62
2022/05/31 05:16:50;;;;;;;;;;;;;;;;;;4968953;28;20012;-62
2022/05/31 05:19:16;;;;;;;;;;;;;;;;;;4965985;28;21251;-62
2022/05/31 05:21:44;;;;;;;;;;;;;;;;;;4967854;28;19918;-62
2022/05/31 05:24:12;;;;;;;;;;;;;;;;;;4958191;28;19961;-62
2022/05/31 05:26:37;;;;;;;;;;;;;;;;;;4966316;28;20382;-62
2022/05/31 05:31:53;;;;;;;;;;;;;;;;;;4966811;28;20654;-62
2022/05/31 05:34:21;;;;;;;;;;;;;;;;;;4966940;28;20447;-62
2022/05/31 05:36:46;;;;;;;;;;;;;;;;;;4966412;28;20866;-62
2022/05/31 05:39:12;;;;;;;;;;;;;;;;;;4967480;28;20032;-62
2022/05/31 05:41:40;;;;;;;;;;;;;;;;;;4966476;28;20065;-62
2022/05/31 05:44:11;;;;;;;;;;;;;;;;;;4967668;28;20317;-62
2022/05/31 05:46:36;;;;;;;;;;;;;;;;;;4967884;28;19957;-62
2022/05/31 05:49:01;;;;;;;;;;;;;;;;;;4946932;28;20625;-62
2022/05/31 05:51:27;;;;;;;;;;;;;;;;;;4967516;28;20479;-61
2022/05/31 05:53:52;;;;;;;;;;;;;;;;;;4968008;28;20009;-62
2022/05/31 05:56:17;;;;;;;;;;;;;;;;;;4949806;28;20003;-61
2022/05/31 06:01:38;;;;;;;;;;;;;;;;;;4970538;28;20047;-62
2022/05/31 06:04:03;;;;;;;;;;;;;;;;;;4967311;28;19925;-61
2022/05/31 06:06:31;;;;;;;;;;;;;;;;;;4971428;28;20015;-62
2022/05/31 06:08:56;;;;;;;;;;;;;;;;;;4950335;28;19926;-61
2022/05/31 06:11:21;;;;;;;;;;;;;;;;;;4970968;28;19926;-61
2022/05/31 06:13:48;;;;;;;;;;;;;;;;;;4968526;28;21547;-61
2022/05/31 06:16:14;;;;;;;;;;;;;;;;;;4973799;28;20389;-61
2022/05/31 06:18:39;;;;;;;;;;;;;;;;;;4967130;28;19918;-61
2022/05/31 06:21:09;;;;;;;;;;;;;;;;;;4949919;28;20060;-62
2022/05/31 06:23:42;;;;;;;;;;;;;;;;;;4972017;28;19918;-62
2022/05/31 06:26:07;;;;;;;;;;;;;;;;;;4964349;28;19917;-62
2022/05/31 06:28:32;;;;;;;;;;;;;;;;;;4969216;28;20844;-62
2022/05/31 06:31:02;;;;;;;;;;;;;;;;;;4971079;28;19926;-61
2022/05/31 06:33:30;;;;;;;;;;;;;;;;;;4971532;28;19921;-61
2022/05/31 06:35:55;;;;;;;;;;;;;;;;;;4967493;28;20503;-61
2022/05/31 06:38:20;;;;;;;;;;;;;;;;;;4983078;28;19921;-60
2022/05/31 06:40:46;;;;;;;;;;;;;;;;;;4966738;28;19918;-61
2022/05/31 06:43:11;;;;;;;;;;;;;;;;;;4983311;28;21821;-62
2022/05/31 06:48:53;;;;;;;;;;;;;;;;;;4968900;28;19973;-61
2022/05/31 06:56:59;;;;;;;;;;;;;;;;;;4970189;28;20515;-62
2022/05/31 07:02:14;;;;;;;;;;;;;;;;;;4968955;28;19925;-62
2022/05/31 07:04:40;;;;;;;;;;;;;;;;;;4969617;28;20470;-62
2022/05/31 07:07:05;;;;;;;;;;;;;;;;;;4970178;28;19918;-62
2022/05/31 07:09:31;;;;;;;;;;;;;;;;;;4969003;28;19972;-62
2022/05/31 07:12:05;;;;;;;;;;;;;;;;;;4969756;28;19972;-62
2022/05/31 07:14:36;;;;;;;;;;;;;;;;;;4971157;28;19918;-62
2022/05/31 07:17:03;;;;;;;;;;;;;;;;;;4950763;28;20358;-62
2022/05/31 07:19:29;;;;;;;;;;;;;;;;;;4970392;28;19968;-62
2022/05/31 07:21:54;;;;;;;;;;;;;;;;;;4969670;28;19930;-62
2022/05/31 07:24:19;;;;;;;;;;;;;;;;;;4966002;28;20040;-62
2022/05/31 07:26:48;;;;;;;;;;;;;;;;;;4968490;28;20026;-63
2022/05/31 07:29:19;;;;;;;;;;;;;;;;;;4961102;28;19944;-62
2022/05/31 07:31:47;;;;;;;;;;;;;;;;;;4968460;28;19922;-63
2022/05/31 07:34:25;;;;;;;;;;;;;;;;;;4967142;28;20013;-61
2022/05/31 07:36:53;;;;;;;;;;;;;;;;;;4965437;28;20048;-62
2022/05/31 07:42:50;;;;;;;;;;;;;;;;;;4969789;28;19928;-63
2022/05/31 07:45:16;;;;;;;;;;;;;;;;;;4950278;28;19922;-63
2022/05/31 07:47:46;;;;;;;;;;;;;;;;;;4962370;28;19928;-62
2022/05/31 07:50:17;;;;;;;;;;;;;;;;;;4965805;28;19928;-62
2022/05/31 07:52:45;;;;;;;;;;;;;;;;;;4970803;28;19922;-63
2022/05/31 07:55:10;;;;;;;;;;;;;;;;;;4970089;28;19953;-63
2022/05/31 08:00:54;;;;;;;;;;;;;;;;;;4970417;28;19928;-63
2022/05/31 08:03:19;;;;;;;;;;;;;;;;;;4961918;28;19929;-63
2022/05/31 08:05:44;;;;;;;;;;;;;;;;;;4965942;28;19932;-63
2022/05/31 08:08:12;;;;;;;;;;;;;;;;;;4952170;28;20012;-64
2022/05/31 08:10:40;;;;;;;;;;;;;;;;;;4966904;28;19917;-64
2022/05/31 08:13:06;;;;;;;;;;;;;;;;;;4970281;28;19934;-62
2022/05/31 08:15:31;;;;;;;;;;;;;;;;;;4968397;28;19922;-63
2022/05/31 08:17:57;;;;;;;;;;;;;;;;;;4965580;28;19933;-63
2022/05/31 08:27:00;;;;;;;;;;;;;;;;;;4968646;28;21890;-63
2022/05/31 08:29:28;;;;;;;;;;;;;;;;;;4967065;28;19928;-64
2022/05/31 08:31:54;;;;;;;;;;;;;;;;;;4950139;28;19965;-63
2022/05/31 08:34:22;;;;;;;;;;;;;;;;;;4947428;28;19925;-63
2022/05/31 08:36:50;;;;;;;;;;;;;;;;;;4948082;28;19924;-64
2022/05/31 08:39:15;;;;;;;;;;;;;;;;;;4979670;28;20582;-63
2022/05/31 08:41:46;;;;;;;;;;;;;;;;;;4966709;28;20017;-64
2022/05/31 08:44:12;;;;;;;;;;;;;;;;;;4968338;28;19917;-64
2022/05/31 08:46:37;;;;;;;;;;;;;;;;;;4964358;28;19922;-62
2022/05/31 08:49:03;;;;;;;;;;;;;;;;;;4965639;28;19956;-63
2022/05/31 08:56:56;;;;;;;;;;;;;;;;;;4968991;28;19933;-63
2022/05/31 08:59:22;;;;;;;;;;;;;;;;;;4964587;28;21961;-63
2022/05/31 09:01:49;;;;;;;;;;;;;;;;;;4967567;28;21922;-63
2022/05/31 09:04:17;;;;;;;;;;;;;;;;;;4948664;28;19921;-62
2022/05/31 09:06:51;;;;;;;;;;;;;;;;;;4965893;28;19967;-63
2022/05/31 09:09:19;;;;;;;;;;;;;;;;;;4966901;28;19953;-62
2022/05/31 09:11:44;;;;;;;;;;;;;;;;;;4967257;28;20771;-63
2022/05/31 09:14:10;;;;;;;;;;;;;;;;;;4966162;28;19922;-63
2022/05/31 09:16:35;;;;;;;;;;;;;;;;;;4947723;28;19929;-63
2022/05/31 09:22:17;;;;;;;;;;;;;;;;;;4967968;28;19980;-65
2022/05/31 09:28:01;;;;;;;;;;;;;;;;;;4967584;28;20163;-64
2022/05/31 09:30:27;;;;;;;;;;;;;;;;;;4963578;28;20800;-64
2022/05/31 09:32:53;;;;;;;;;;;;;;;;;;4968474;28;19933;-64
2022/05/31 09:35:20;;;;;;;;;;;;;;;;;;4968584;28;19926;-62
2022/05/31 09:37:48;;;;;;;;;;;;;;;;;;4963067;28;19922;-64
2022/05/31 09:40:14;;;;;;;;;;;;;;;;;;4967865;28;19928;-63
2022/05/31 09:42:39;;;;;;;;;;;;;;;;;;4946425;28;19980;-63
2022/05/31 09:45:09;;;;;;;;;;;;;;;;;;4966660;28;20040;-62
2022/05/31 09:50:44;;;;;;;;;;;;;;;;;;4959907;28;19925;-63
2022/05/31 10:02:08;;;;;;;;;;;;;;;;;;4967297;28;19917;-64
2022/05/31 10:04:36;;;;;;;;;;;;;;;;;;4967855;28;19914;-64
2022/05/31 10:07:16;;;;;;;;;;;;;;;;;;4964074;28;19922;-63
2022/05/31 10:09:44;;;;;;;;;;;;;;;;;;4966440;28;19926;-63
2022/05/31 10:12:09;;;;;;;;;;;;;;;;;;4960557;28;19965;-63
2022/05/31 10:14:36;;;;;;;;;;;;;;;;;;4947900;28;20286;-62
2022/05/31 10:20:19;;;;;;;;;;;;;;;;;;4967769;28;20373;-63
2022/05/31 10:22:44;;;;;;;;;;;;;;;;;;4977497;28;19934;-63
2022/05/31 10:25:25;;;;;;;;;;;;;;;;;;4948015;28;20057;-64
2022/05/31 10:27:51;;;;;;;;;;;;;;;;;;4964261;28;20906;-65
2022/05/31 10:30:16;;;;;;;;;;;;;;;;;;4966163;28;21895;-64
2022/05/31 10:32:42;;;;;;;;;;;;;;;;;;4965602;28;19926;-63
2022/05/31 10:35:07;;;;;;;;;;;;;;;;;;4964466;28;19932;-64
2022/05/31 10:37:32;;;;;;;;;;;;;;;;;;4965999;28;20587;-64
2022/05/31 10:39:58;;;;;;;;;;;;;;;;;;4968318;28;19918;-64
2022/05/31 10:42:25;;;;;;;;;;;;;;;;;;4970076;28;20395;-64
2022/05/31 10:44:55;;;;;;;;;;;;;;;;;;4971319;28;19961;-64
2022/05/31 10:47:24;;;;;;;;;;;;;;;;;;4968917;28;22087;-64
2022/05/31 10:49:51;;;;;;;;;;;;;;;;;;4969595;28;19928;-63
2022/05/31 10:52:17;;;;;;;;;;;;;;;;;;4970356;28;19965;-63
2022/05/31 10:54:42;;;;;;;;;;;;;;;;;;4950046;28;20026;-63
2022/05/31 10:57:07;;;;;;;;;;;;;;;;;;4969259;28;19977;-65
2022/05/31 10:59:35;;;;;;;;;;;;;;;;;;4951190;28;19960;-65
2022/05/31 11:02:01;;;;;;;;;;;;;;;;;;4967491;28;20503;-65
2022/05/31 11:04:30;;;;;;;;;;;;;;;;;;4970292;28;20878;-64
2022/05/31 11:12:36;;;;;;;;;;;;;;;;;;4969327;28;21898;-65
2022/05/31 11:15:01;;;;;;;;;;;;;;;;;;4952506;28;19933;-64
2022/05/31 11:17:31;;;;;;;;;;;;;;;;;;4965732;28;19929;-65
2022/05/31 11:19:56;;;;;;;;;;;;;;;;;;4953820;28;19918;-64
2022/05/31 11:25:54;;;;;;;;;;;;;;;;;;4969511;28;20538;-65
2022/05/31 11:28:34;;;;;;;;;;;;;;;;;;4968227;28;19980;-64
2022/05/31 11:31:03;;;;;;;;;;;;;;;;;;4961851;28;19937;-65
2022/05/31 11:33:30;;;;;;;;;;;;;;;;;;4967754;28;19984;-65
2022/05/31 11:36:04;;;;;;;;;;;;;;;;;;4968573;28;19925;-65
2022/05/31 11:38:30;;;;;;;;;;;;;;;;;;4970677;28;19933;-64
2022/05/31 11:40:56;;;;;;;;;;;;;;;;;;4970062;28;19929;-64
2022/05/31 11:43:21;;;;;;;;;;;;;;;;;;4966935;28;19922;-65
2022/05/31 11:45:49;;;;;;;;;;;;;;;;;;4970334;28;20005;-65
2022/05/31 11:48:15;;;;;;;;;;;;;;;;;;4969699;28;19917;-65
2022/05/31 11:53:56;;;;;;;;;;;;;;;;;;4969428;28;19929;-65
2022/05/31 11:56:25;;;;;;;;;;;;;;;;;;4966354;28;20932;-66
2022/05/31 11:58:50;;;;;;;;;;;;;;;;;;4969865;28;19922;-65
2022/05/31 12:01:16;;;;;;;;;;;;;;;;;;4966303;28;19918;-66
2022/05/31 12:03:41;;;;;;;;;;;;;;;;;;4967586;28;20373;-64
2022/05/31 12:06:18;;;;;;;;;;;;;;;;;;4964596;28;20303;-64
2022/05/31 12:08:44;;;;;;;;;;;;;;;;;;4966943;28;20032;-64
2022/05/31 12:11:09;;;;;;;;;;;;;;;;;;4968084;28;20559;-64
2022/05/31 12:13:35;;;;;;;;;;;;;;;;;;4969819;28;19929;-64
2022/05/31 12:16:00;;;;;;;;;;;;;;;;;;4948418;28;20875;-64
2022/05/31 12:18:26;;;;;;;;;;;;;;;;;;4967742;28;20618;-64
2022/05/31 12:20:51;;;;;;;;;;;;;;;;;;4967885;28;19918;-64
2022/05/31 12:23:16;;;;;;;;;;;;;;;;;;4962330;28;19924;-63
2022/05/31 12:25:44;;;;;;;;;;;;;;;;;;4962928;28;19922;-66
2022/05/31 12:28:10;;;;;;;;;;;;;;;;;;4970592;28;19976;-66
2022/05/31 12:30:40;;;;;;;;;;;;;;;;;;4968693;28;19922;-66
2022/05/31 12:33:06;;;;;;;;;;;;;;;;;;4967226;28;20923;-66
2022/05/31 12:35:31;;;;;;;;;;;;;;;;;;4950935;28;19921;-66
2022/05/31 12:37:56;;;;;;;;;;;;;;;;;;4968740;28;20025;-63
2022/05/31 12:40:26;;;;;;;;;;;;;;;;;;4966098;28;20008;-63
2022/05/31 12:42:54;;;;;;;;;;;;;;;;;;4952782;28;19926;-63
2022/05/31 12:45:19;;;;;;;;;;;;;;;;;;4968864;28;20012;-63
2022/05/31 12:47:47;;;;;;;;;;;;;;;;;;4965220;28;19983;-64
2022/05/31 12:50:18;;;;;;;;;;;;;;;;;;4969185;28;21869;-64
2022/05/31 12:55:11;;;;;;;;;;;;;;;;;;4964533;28;20040;-63
2022/05/31 13:00:39;;;;;;;;;;;;;;;;;;4967004;28;19932;-64
2022/05/31 13:03:05;;;;;;;;;;;;;;;;;;4956883;28;19922;-64
2022/05/31 13:05:31;;;;;;;;;;;;;;;;;;4969326;28;19934;-64
2022/05/31 13:07:56;;;;;;;;;;;;;;;;;;4967138;28;19918;-64
2022/05/31 13:10:23;;;;;;;;;;;;;;;;;;4968408;28;19926;-64
2022/05/31 13:21:50;;;;;;;;;;;;;;;;;;4908614;28;19922;-64
2022/05/31 13:24:18;;;;;;;;;;;;;;;;;;4923904;28;19929;-64
2022/05/31 13:26:44;;;;;;;;;;;;;;;;;;4908376;29;20578;-65
2022/05/31 13:29:13;;;;;;;;;;;;;;;;;;4892779;28;19922;-65
2022/05/31 13:31:48;;;;;;;;;;;;;;;;;;4968370;28;19922;-65
2022/05/31 13:40:45;;;;;;;;;;;;;;;;;;4969910;28;19972;-65
2022/05/31 13:45:56;;;;;;;;;;;;;;;;;;4967460;28;19922;-65
2022/05/31 13:48:21;;;;;;;;;;;;;;;;;;4969082;28;19960;-65
2022/05/31 13:50:48;;;;;;;;;;;;;;;;;;4967754;28;19964;-65
2022/05/31 13:56:06;;;;;;;;;;;;;;;;;;4968126;28;20224;-65
2022/05/31 14:01:47;;;;;;;;;;;;;;;;;;4962837;28;19968;-64
2022/05/31 14:04:13;;;;;;;;;;;;;;;;;;4962267;28;19926;-65
2022/05/31 14:06:38;;;;;;;;;;;;;;;;;;4964276;28;21728;-65
2022/05/31 14:09:04;;;;;;;;;;;;;;;;;;4959443;28;19922;-65
2022/05/31 14:11:29;;;;;;;;;;;;;;;;;;4942359;28;19941;-65
2022/05/31 14:17:11;;;;;;;;;;;;;;;;;;4963013;28;19929;-64
2022/05/31 14:22:30;;;;;;;;;;;;;;;;;;4959951;28;19978;-65
2022/05/31 14:27:47;;;;;;;;;;;;;;;;;;4962529;28;19929;-64
2022/05/31 14:30:15;;;;;;;;;;;;;;;;;;4962874;28;20764;-65
2022/05/31 14:32:43;;;;;;;;;;;;;;;;;;4963092;28;19930;-64
2022/05/31 14:35:09;;;;;;;;;;;;;;;;;;4962443;28;21254;-66
2022/05/31 14:37:38;;;;;;;;;;;;;;;;;;4964248;28;19922;-64
2022/05/31 14:40:06;;;;;;;;;;;;;;;;;;4961071;28;20645;-64
2022/05/31 14:42:34;;;;;;;;;;;;;;;;;;4971129;28;19917;-65
2022/05/31 14:45:02;;;;;;;;;;;;;;;;;;4964428;28;19929;-64
2022/05/31 14:47:27;;;;;;;;;;;;;;;;;;4963071;28;20021;-65
2022/05/31 14:49:53;;;;;;;;;;;;;;;;;;4962568;28;19925;-64
2022/05/31 14:52:18;;;;;;;;;;;;;;;;;;4964457;28;19965;-63
2022/05/31 14:54:45;;;;;;;;;;;;;;;;;;4958588;28;19976;-65
2022/05/31 14:57:10;;;;;;;;;;;;;;;;;;4966446;28;20714;-64
2022/05/31 14:59:35;;;;;;;;;;;;;;;;;;4960774;28;19976;-63
2022/05/31 15:02:01;;;;;;;;;;;;;;;;;;4977468;28;19921;-64
2022/05/31 15:04:29;;;;;;;;;;;;;;;;;;4961651;28;19956;-64
2022/05/31 15:06:56;;;;;;;;;;;;;;;;;;4940419;28;19921;-64
2022/05/31 15:09:22;;;;;;;;;;;;;;;;;;4965306;28;20070;-66
2022/05/31 15:19:59;;;;;;;;;;;;;;;;;;4968792;28;19945;-65
2022/05/31 15:22:24;;;;;;;;;;;;;;;;;;4962814;28;20290;-64
2022/05/31 15:24:50;;;;;;;;;;;;;;;;;;4962665;28;19929;-64
2022/05/31 15:27:15;;;;;;;;;;;;;;;;;;4965322;28;19930;-64
2022/05/31 15:29:43;;;;;;;;;;;;;;;;;;4947923;28;19957;-65
2022/05/31 15:32:09;;;;;;;;;;;;;;;;;;4963505;28;19917;-65
2022/05/31 15:34:35;;;;;;;;;;;;;;;;;;4959003;28;19929;-64
2022/05/31 15:40:16;;;;;;;;;;;;;;;;;;4965350;28;19956;-63
2022/05/31 15:42:44;;;;;;;;;;;;;;;;;;4967883;28;19917;-65
2022/05/31 15:45:15;;;;;;;;;;;;;;;;;;4963380;28;19922;-64
2022/05/31 15:47:40;;;;;;;;;;;;;;;;;;4958465;28;19921;-64
2022/05/31 15:50:05;;;;;;;;;;;;;;;;;;4943675;28;19964;-64
2022/05/31 15:52:31;;;;;;;;;;;;;;;;;;4959502;28;19922;-63
2022/05/31 16:01:01;;;;;;;;;;;;;;;;;;4960854;28;21048;-63
2022/05/31 16:03:29;;;;;;;;;;;;;;;;;;4957878;28;19921;-63
2022/05/31 16:06:19;;;;;;;;;;;;;;;;;;4956987;28;19922;-63
2022/05/31 16:08:56;;;;;;;;;;;;;;;;;;4962004;28;19968;-64
2022/05/31 16:11:30;;;;;;;;;;;;;;;;;;4956050;28;21424;-64
2022/05/31 16:17:13;;;;;;;;;;;;;;;;;;4954416;28;20581;-64
2022/05/31 16:19:40;;;;;;;;;;;;;;;;;;4953190;28;19922;-64
2022/05/31 16:22:08;;;;;;;;;;;;;;;;;;4952489;28;19929;-64
2022/05/31 16:24:34;;;;;;;;;;;;;;;;;;4957241;28;20599;-64
2022/05/31 16:27:02;;;;;;;;;;;;;;;;;;4937064;28;19934;-64
2022/05/31 16:32:46;;;;;;;;;;;;;;;;;;4960689;28;20582;-63
2022/05/31 16:35:14;;;;;;;;;;;;;;;;;;4959691;28;19926;-63
2022/05/31 16:43:08;;;;;;;;;;;;;;;;;;4960360;28;19925;-63
2022/05/31 16:45:34;;;;;;;;;;;;;;;;;;4959200;28;19921;-63
2022/05/31 16:48:01;;;;;;;;;;;;;;;;;;4959058;28;20016;-63
2022/05/31 16:50:26;;;;;;;;;;;;;;;;;;4940518;28;19964;-63
2022/05/31 16:52:52;;;;;;;;;;;;;;;;;;4962297;28;20013;-64
2022/05/31 16:55:17;;;;;;;;;;;;;;;;;;4953360;28;20533;-64
2022/05/31 16:57:42;;;;;;;;;;;;;;;;;;4961067;28;20021;-63
2022/05/31 17:00:10;;;;;;;;;;;;;;;;;;4956247;28;19961;-64
2022/05/31 17:02:35;;;;;;;;;;;;;;;;;;4960351;28;20036;-63
2022/05/31 17:05:03;;;;;;;;;;;;;;;;;;4958326;28;20370;-64
2022/05/31 17:15:41;;;;;;;;;;;;;;;;;;4963172;28;20003;-64
2022/05/31 17:18:09;;;;;;;;;;;;;;;;;;4952695;28;20445;-64
2022/05/31 17:20:34;;;;;;;;;;;;;;;;;;4961252;28;19929;-63
2022/05/31 17:23:03;;;;;;;;;;;;;;;;;;4958334;28;21565;-63
2022/05/31 17:25:28;;;;;;;;;;;;;;;;;;4943031;28;20016;-63
2022/05/31 17:27:54;;;;;;;;;;;;;;;;;;4958200;28;20712;-64
2022/05/31 17:30:20;;;;;;;;;;;;;;;;;;4955681;28;19948;-64
2022/05/31 17:32:45;;;;;;;;;;;;;;;;;;4963150;28;19918;-64
2022/05/31 17:35:12;;;;;;;;;;;;;;;;;;4962993;28;20511;-64
2022/05/31 17:40:57;;;;;;;;;;;;;;;;;;4960664;28;19976;-63
2022/05/31 17:43:22;;;;;;;;;;;;;;;;;;4957208;28;20933;-63
2022/05/31 17:45:50;;;;;;;;;;;;;;;;;;4939455;28;19918;-63
2022/05/31 17:48:15;;;;;;;;;;;;;;;;;;4956728;28;19967;-63
2022/05/31 17:50:41;;;;;;;;;;;;;;;;;;4958779;28;20846;-63
2022/05/31 17:53:06;;;;;;;;;;;;;;;;;;4956930;28;19980;-63
2022/05/31 17:55:34;;;;;;;;;;;;;;;;;;4959660;28;21015;-65
2022/05/31 17:58:05;;;;;;;;;;;;;;;;;;4960768;28;20056;-63
2022/05/31 18:00:32;;;;;;;;;;;;;;;;;;4948633;28;19926;-63
2022/05/31 18:02:58;;;;;;;;;;;;;;;;;;4962512;28;19925;-63
2022/05/31 18:05:23;;;;;;;;;;;;;;;;;;4939506;28;20918;-63
2022/05/31 18:07:48;;;;;;;;;;;;;;;;;;4969796;28;20009;-63
2022/05/31 18:10:20;;;;;;;;;;;;;;;;;;4958020;28;19965;-64
2022/05/31 18:12:48;;;;;;;;;;;;;;;;;;4945109;28;19937;-63
2022/05/31 18:18:36;;;;;;;;;;;;;;;;;;4963712;28;19931;-63
2022/05/31 18:21:01;;;;;;;;;;;;;;;;;;4944488;28;20017;-63
2022/05/31 18:23:27;;;;;;;;;;;;;;;;;;4959131;28;21308;-63
2022/05/31 18:25:55;;;;;;;;;;;;;;;;;;4962579;28;20364;-64
2022/05/31 18:31:06;;;;;;;;;;;;;;;;;;4965413;28;19932;-64
2022/05/31 18:33:32;;;;;;;;;;;;;;;;;;4959662;28;19953;-64
2022/05/31 18:36:03;;;;;;;;;;;;;;;;;;4964321;28;19921;-65
2022/05/31 18:41:13;;;;;;;;;;;;;;;;;;4958133;28;19925;-64
2022/05/31 18:43:38;;;;;;;;;;;;;;;;;;4939351;28;19968;-64
2022/05/31 18:46:04;;;;;;;;;;;;;;;;;;4963629;28;19925;-64
2022/05/31 18:48:32;;;;;;;;;;;;;;;;;;4938917;28;19972;-64
2022/05/31 18:50:57;;;;;;;;;;;;;;;;;;4958499;28;20067;-65
2022/05/31 18:53:25;;;;;;;;;;;;;;;;;;4963689;28;19932;-64
2022/05/31 18:55:51;;;;;;;;;;;;;;;;;;4957480;28;20056;-63
2022/05/31 18:58:16;;;;;;;;;;;;;;;;;;4957950;28;19932;-64
2022/05/31 19:00:41;;;;;;;;;;;;;;;;;;4968879;28;20012;-64
2022/05/31 19:03:06;;;;;;;;;;;;;;;;;;4961164;28;21878;-64
2022/05/31 19:05:32;;;;;;;;;;;;;;;;;;4962745;28;20485;-63
2022/05/31 19:07:58;;;;;;;;;;;;;;;;;;4961836;28;19921;-63
2022/05/31 19:10:23;;;;;;;;;;;;;;;;;;4949988;28;19922;-63
2022/05/31 19:12:48;;;;;;;;;;;;;;;;;;4955993;28;21237;-63
2022/05/31 19:15:14;;;;;;;;;;;;;;;;;;4965533;28;19921;-63
2022/05/31 19:17:40;;;;;;;;;;;;;;;;;;4960058;28;19922;-63
2022/05/31 19:20:08;;;;;;;;;;;;;;;;;;4960401;28;19922;-63
2022/05/31 19:22:35;;;;;;;;;;;;;;;;;;4960747;28;19925;-63
2022/05/31 19:25:02;;;;;;;;;;;;;;;;;;4964211;28;20032;-63
2022/05/31 19:27:28;;;;;;;;;;;;;;;;;;4958959;28;20313;-65
2022/05/31 19:30:02;;;;;;;;;;;;;;;;;;4945813;28;19932;-64
2022/05/31 19:39:01;;;;;;;;;;;;;;;;;;4955260;28;19932;-63
2022/05/31 19:41:26;;;;;;;;;;;;;;;;;;4972508;28;19921;-64
2022/05/31 19:47:09;;;;;;;;;;;;;;;;;;4961090;28;19969;-63
2022/05/31 19:49:34;;;;;;;;;;;;;;;;;;4944181;28;19949;-63
2022/05/31 19:51:59;;;;;;;;;;;;;;;;;;4957317;28;21168;-64
2022/05/31 19:57:42;;;;;;;;;;;;;;;;;;4963775;28;19933;-64
2022/05/31 20:00:07;;;;;;;;;;;;;;;;;;4957078;28;19926;-64